Leominster, MA

7:08 AM EST on March 05, 2015 (GMT -0500)
Upper Nelson St | Change Station
CLOSE
Current Station
Personal Weather Station
Location: Leominster, MA
Elevation: 540 ft
Nearby Weather Stations

Elev 540 ft 42.54 °N, 71.77 °W | Updated 12 seconds ago

Overcast
Overcast
28.9 °F
Feels Like 23 °F
N
5.0
Wind Variable Wind from North
Gusts 10.0 mph

Today
High -- | Low -- °F
--% Chance of Precip.
Yesterday
High -- | Low -- °F
Precip. -- in
6:16 AM 5:41 PM
Full, 100% visible
Pressure 29.97 in
Visibility 10.0 miles
Clouds Overcast 7000 ft
Windchill 23 °F
Dew Point 15 °F
Humidity 55%
Rainfall in
Snow Depth Not available.
UV 0 out of 12
Pollen .90 out of 12
Air Quality Not available.
Flu Activity Not available.
METAR KFIT 051052Z AUTO 33011G20KT 10SM OVC070 01/M08 A2995 RMK AO2 SLP147 T00111078

More Conditions Fewer Conditions

Pressure 29.97 in
Visibility 10.0 miles
Clouds Overcast 7000 ft
Windchill 23 °F
Dew Point 15 °F
Humidity 55%
Rainfall in
Snow Depth Not available.
UV 0 out of 12
Pollen .90 out of 12
Air Quality Not available.
Flu Activity Not available.
METAR KFIT 051052Z AUTO 33011G20KT 10SM OVC070 01/M08 A2995 RMK AO2 SLP147 T00111078

More Conditions Fewer Conditions

10-Day Weather Forecast

Almanac

Astronomy

Mar. 05, 2015 Rise Set
Actual Time
Civil Twilight
Nautical Twilight
Astronomical Twilight
Moon
Length of Visible Light
Length of Day
Tomorrow will be .
, % of the Moon is Illuminated

Today's Extremes

State Highs State Lows

Community

WunderPhotos

Upload Photos

1,802,716 photos uploaded!

WunderBlogs® & News

Nearby

Air Quality

  Air Quality AQ Index Pollutant
Not available.

Snow Depth

Station Depth Elevation

Earthquake Activity

City Distance Mag. Time & Date
Minimum magnitude displayed is 2.5.

Coastal Water Temperatures

Place Temperature

Nearby Weather Stations